Terminal Aerodrome Forecast
Issued by NWS Twin Cities, MN

Home | Current Version | Previous Version | Text Only | Print | Product List | Glossary On
Versions: 1 2 3 4 5 6 7 8 9 10 11 12 13 14 15 16 17 18
994
FTUS43 KMPX 200418 AAA
TAFEAU
TAF AMD
KEAU 200418Z 2004/2024 04012KT P6SM OVC008
     FM200900 04006KT 1SM -PLSN BR OVC005
     FM201200 04003KT 3SM -FZDZSN BR OVC008
     FM201400 36003KT P6SM OVC008
     FM201800 28006KT P6SM OVC009
     FM202000 28007KT P6SM OVC014=

USA.gov is the U.S. government's official web portal to all federal, state and local government web resources and services.